sensor_id;sensor_type;location;lat;lon;timestamp;P1;durP1;ratioP1;P2;durP2;ratioP2
20140;SDS011;10231;47.702;9.826;2024-03-17T00:02:17;2.47;;;2.27;;
20140;SDS011;10231;47.702;9.826;2024-03-17T00:04:44;2.80;;;2.60;;
20140;SDS011;10231;47.702;9.826;2024-03-17T00:07:10;3.03;;;2.80;;
20140;SDS011;10231;47.702;9.826;2024-03-17T00:09:36;3.60;;;3.30;;
20140;SDS011;10231;47.702;9.826;2024-03-17T00:12:02;3.80;;;3.47;;
20140;SDS011;10231;47.702;9.826;2024-03-17T00:14:27;3.73;;;3.37;;
20140;SDS011;10231;47.702;9.826;2024-03-17T00:16:54;3.07;;;2.83;;
20140;SDS011;10231;47.702;9.826;2024-03-17T00:19:19;2.87;;;2.67;;
20140;SDS011;10231;47.702;9.826;2024-03-17T00:21:47;3.17;;;2.97;;
20140;SDS011;10231;47.702;9.826;2024-03-17T00:24:15;3.73;;;2.73;;
20140;SDS011;10231;47.702;9.826;2024-03-17T00:26:41;3.33;;;3.13;;
20140;SDS011;10231;47.702;9.826;2024-03-17T00:29:07;2.97;;;2.83;;
20140;SDS011;10231;47.702;9.826;2024-03-17T00:31:32;3.27;;;2.97;;
20140;SDS011;10231;47.702;9.826;2024-03-17T00:33:58;3.90;;;3.40;;
20140;SDS011;10231;47.702;9.826;2024-03-17T00:36:24;3.03;;;2.80;;
20140;SDS011;10231;47.702;9.826;2024-03-17T00:38:49;3.43;;;3.10;;
20140;SDS011;10231;47.702;9.826;2024-03-17T00:41:16;4.07;;;3.27;;
20140;SDS011;10231;47.702;9.826;2024-03-17T00:43:42;4.40;;;3.20;;
20140;SDS011;10231;47.702;9.826;2024-03-17T00:46:08;3.10;;;2.90;;
20140;SDS011;10231;47.702;9.826;2024-03-17T00:48:33;3.37;;;3.17;;
20140;SDS011;10231;47.702;9.826;2024-03-17T00:50:59;4.27;;;3.20;;
20140;SDS011;10231;47.702;9.826;2024-03-17T00:53:25;12.40;;;7.77;;
20140;SDS011;10231;47.702;9.826;2024-03-17T00:55:53;6.50;;;4.77;;
20140;SDS011;10231;47.702;9.826;2024-03-17T00:58:23;5.37;;;4.87;;
20140;SDS011;10231;47.702;9.826;2024-03-17T01:00:49;4.23;;;3.83;;
20140;SDS011;10231;47.702;9.826;2024-03-17T01:03:18;5.87;;;5.30;;
20140;SDS011;10231;47.702;9.826;2024-03-17T01:05:44;6.17;;;4.73;;
20140;SDS011;10231;47.702;9.826;2024-03-17T01:08:12;4.60;;;4.20;;
20140;SDS011;10231;47.702;9.826;2024-03-17T01:10:41;4.50;;;4.20;;
20140;SDS011;10231;47.702;9.826;2024-03-17T01:13:07;4.90;;;4.50;;
20140;SDS011;10231;47.702;9.826;2024-03-17T01:15:34;4.50;;;4.17;;
20140;SDS011;10231;47.702;9.826;2024-03-17T01:18:06;4.37;;;3.87;;
20140;SDS011;10231;47.702;9.826;2024-03-17T01:20:33;4.10;;;3.80;;
20140;SDS011;10231;47.702;9.826;2024-03-17T01:23:00;5.57;;;4.67;;
20140;SDS011;10231;47.702;9.826;2024-03-17T01:25:26;4.63;;;4.20;;
20140;SDS011;10231;47.702;9.826;2024-03-17T01:27:54;4.77;;;4.23;;
20140;SDS011;10231;47.702;9.826;2024-03-17T01:30:20;4.70;;;4.20;;
20140;SDS011;10231;47.702;9.826;2024-03-17T01:32:46;3.70;;;3.50;;
20140;SDS011;10231;47.702;9.826;2024-03-17T01:35:12;4.40;;;4.00;;
20140;SDS011;10231;47.702;9.826;2024-03-17T01:37:38;5.37;;;4.00;;
20140;SDS011;10231;47.702;9.826;2024-03-17T01:40:04;4.37;;;3.97;;
20140;SDS011;10231;47.702;9.826;2024-03-17T01:42:33;4.60;;;4.20;;
20140;SDS011;10231;47.702;9.826;2024-03-17T01:44:59;4.63;;;4.10;;
20140;SDS011;10231;47.702;9.826;2024-03-17T01:47:24;4.57;;;4.17;;
20140;SDS011;10231;47.702;9.826;2024-03-17T01:49:50;4.30;;;4.00;;
20140;SDS011;10231;47.702;9.826;2024-03-17T01:52:17;4.40;;;4.10;;
20140;SDS011;10231;47.702;9.826;2024-03-17T01:54:43;4.57;;;4.17;;
20140;SDS011;10231;47.702;9.826;2024-03-17T01:57:11;4.97;;;4.47;;
20140;SDS011;10231;47.702;9.826;2024-03-17T01:59:37;4.67;;;4.20;;
20140;SDS011;10231;47.702;9.826;2024-03-17T02:02:04;3.70;;;3.50;;
20140;SDS011;10231;47.702;9.826;2024-03-17T02:04:30;3.73;;;3.43;;
20140;SDS011;10231;47.702;9.826;2024-03-17T02:06:56;4.00;;;3.70;;
20140;SDS011;10231;47.702;9.826;2024-03-17T02:09:22;3.30;;;3.00;;
20140;SDS011;10231;47.702;9.826;2024-03-17T02:11:47;3.50;;;3.30;;
20140;SDS011;10231;47.702;9.826;2024-03-17T02:14:13;3.00;;;2.80;;
20140;SDS011;10231;47.702;9.826;2024-03-17T02:16:40;2.70;;;2.50;;
20140;SDS011;10231;47.702;9.826;2024-03-17T02:19:05;3.10;;;2.90;;
20140;SDS011;10231;47.702;9.826;2024-03-17T02:21:31;3.00;;;2.77;;
20140;SDS011;10231;47.702;9.826;2024-03-17T02:23:56;2.60;;;2.40;;
20140;SDS011;10231;47.702;9.826;2024-03-17T02:26:23;3.17;;;2.87;;
20140;SDS011;10231;47.702;9.826;2024-03-17T02:28:50;3.60;;;3.30;;
20140;SDS011;10231;47.702;9.826;2024-03-17T02:31:16;3.20;;;2.97;;
20140;SDS011;10231;47.702;9.826;2024-03-17T02:33:43;3.23;;;2.80;;
20140;SDS011;10231;47.702;9.826;2024-03-17T02:36:09;3.37;;;3.17;;
20140;SDS011;10231;47.702;9.826;2024-03-17T02:38:37;2.97;;;2.77;;
20140;SDS011;10231;47.702;9.826;2024-03-17T02:41:22;3.30;;;3.10;;
20140;SDS011;10231;47.702;9.826;2024-03-17T02:43:48;5.20;;;3.80;;
20140;SDS011;10231;47.702;9.826;2024-03-17T02:46:14;4.53;;;3.00;;
20140;SDS011;10231;47.702;9.826;2024-03-17T02:48:41;3.20;;;2.90;;
20140;SDS011;10231;47.702;9.826;2024-03-17T02:51:12;3.37;;;3.07;;
20140;SDS011;10231;47.702;9.826;2024-03-17T02:53:42;3.30;;;3.00;;
20140;SDS011;10231;47.702;9.826;2024-03-17T02:56:11;3.47;;;3.17;;
20140;SDS011;10231;47.702;9.826;2024-03-17T02:58:38;3.63;;;3.33;;
20140;SDS011;10231;47.702;9.826;2024-03-17T03:01:07;3.47;;;3.17;;
20140;SDS011;10231;47.702;9.826;2024-03-17T03:03:34;3.13;;;2.93;;
20140;SDS011;10231;47.702;9.826;2024-03-17T03:06:00;2.90;;;2.70;;
20140;SDS011;10231;47.702;9.826;2024-03-17T03:08:29;3.80;;;3.20;;
20140;SDS011;10231;47.702;9.826;2024-03-17T03:10:58;3.13;;;2.93;;
20140;SDS011;10231;47.702;9.826;2024-03-17T03:13:24;3.53;;;3.07;;
20140;SDS011;10231;47.702;9.826;2024-03-17T03:15:50;3.27;;;2.77;;
20140;SDS011;10231;47.702;9.826;2024-03-17T03:18:16;2.70;;;2.60;;
20140;SDS011;10231;47.702;9.826;2024-03-17T03:20:41;3.20;;;2.90;;
20140;SDS011;10231;47.702;9.826;2024-03-17T03:23:08;3.50;;;3.20;;
20140;SDS011;10231;47.702;9.826;2024-03-17T03:25:34;3.20;;;3.00;;
20140;SDS011;10231;47.702;9.826;2024-03-17T03:27:59;3.27;;;3.07;;
20140;SDS011;10231;47.702;9.826;2024-03-17T03:30:26;3.20;;;2.93;;
20140;SDS011;10231;47.702;9.826;2024-03-17T03:32:52;3.60;;;3.40;;
20140;SDS011;10231;47.702;9.826;2024-03-17T03:35:18;3.53;;;3.23;;
20140;SDS011;10231;47.702;9.826;2024-03-17T03:37:44;4.23;;;3.53;;
20140;SDS011;10231;47.702;9.826;2024-03-17T03:40:10;3.43;;;3.13;;
20140;SDS011;10231;47.702;9.826;2024-03-17T03:42:41;3.80;;;3.50;;
20140;SDS011;10231;47.702;9.826;2024-03-17T03:45:10;3.13;;;2.93;;
20140;SDS011;10231;47.702;9.826;2024-03-17T03:47:41;3.80;;;3.50;;
20140;SDS011;10231;47.702;9.826;2024-03-17T03:50:11;3.60;;;3.30;;
20140;SDS011;10231;47.702;9.826;2024-03-17T03:52:39;3.03;;;2.90;;
20140;SDS011;10231;47.702;9.826;2024-03-17T03:55:08;3.30;;;3.00;;
20140;SDS011;10231;47.702;9.826;2024-03-17T03:57:40;3.00;;;2.80;;
20140;SDS011;10231;47.702;9.826;2024-03-17T04:00:13;3.17;;;2.73;;
20140;SDS011;10231;47.702;9.826;2024-03-17T04:02:40;3.40;;;3.00;;
20140;SDS011;10231;47.702;9.826;2024-03-17T04:05:07;3.23;;;3.03;;
20140;SDS011;10231;47.702;9.826;2024-03-17T04:07:33;2.93;;;2.73;;
20140;SDS011;10231;47.702;9.826;2024-03-17T04:09:59;4.67;;;3.90;;
20140;SDS011;10231;47.702;9.826;2024-03-17T04:12:25;3.80;;;3.50;;
20140;SDS011;10231;47.702;9.826;2024-03-17T04:14:51;3.57;;;3.27;;
20140;SDS011;10231;47.702;9.826;2024-03-17T04:17:18;3.20;;;3.00;;
20140;SDS011;10231;47.702;9.826;2024-03-17T04:19:46;3.73;;;3.20;;
20140;SDS011;10231;47.702;9.826;2024-03-17T04:22:19;4.20;;;2.93;;
20140;SDS011;10231;47.702;9.826;2024-03-17T04:24:47;3.20;;;3.00;;
20140;SDS011;10231;47.702;9.826;2024-03-17T04:27:18;2.50;;;2.40;;
20140;SDS011;10231;47.702;9.826;2024-03-17T04:29:53;3.20;;;3.00;;
20140;SDS011;10231;47.702;9.826;2024-03-17T04:32:20;2.50;;;2.40;;
20140;SDS011;10231;47.702;9.826;2024-03-17T04:34:46;3.00;;;2.80;;
20140;SDS011;10231;47.702;9.826;2024-03-17T04:37:12;2.43;;;2.33;;
20140;SDS011;10231;47.702;9.826;2024-03-17T04:39:38;2.53;;;2.43;;
20140;SDS011;10231;47.702;9.826;2024-03-17T04:42:05;3.03;;;2.67;;
20140;SDS011;10231;47.702;9.826;2024-03-17T04:44:31;2.83;;;2.63;;
20140;SDS011;10231;47.702;9.826;2024-03-17T04:46:57;2.60;;;2.10;;
20140;SDS011;10231;47.702;9.826;2024-03-17T04:49:23;2.77;;;2.60;;
20140;SDS011;10231;47.702;9.826;2024-03-17T04:51:48;2.83;;;2.60;;
20140;SDS011;10231;47.702;9.826;2024-03-17T04:54:14;2.90;;;2.70;;
20140;SDS011;10231;47.702;9.826;2024-03-17T04:56:40;2.70;;;2.60;;
20140;SDS011;10231;47.702;9.826;2024-03-17T04:59:05;2.60;;;2.50;;
20140;SDS011;10231;47.702;9.826;2024-03-17T05:01:31;3.23;;;2.80;;
20140;SDS011;10231;47.702;9.826;2024-03-17T05:04:01;2.87;;;2.67;;
20140;SDS011;10231;47.702;9.826;2024-03-17T05:06:28;2.40;;;2.30;;
20140;SDS011;10231;47.702;9.826;2024-03-17T05:08:53;2.57;;;2.47;;
20140;SDS011;10231;47.702;9.826;2024-03-17T05:11:19;2.70;;;2.60;;
20140;SDS011;10231;47.702;9.826;2024-03-17T05:13:45;3.00;;;2.80;;
20140;SDS011;10231;47.702;9.826;2024-03-17T05:16:11;2.80;;;2.70;;
20140;SDS011;10231;47.702;9.826;2024-03-17T05:18:36;2.70;;;2.60;;
20140;SDS011;10231;47.702;9.826;2024-03-17T05:21:07;2.97;;;2.77;;
20140;SDS011;10231;47.702;9.826;2024-03-17T05:23:34;2.80;;;2.60;;
20140;SDS011;10231;47.702;9.826;2024-03-17T05:26:00;3.27;;;3.07;;
20140;SDS011;10231;47.702;9.826;2024-03-17T05:28:27;2.47;;;2.37;;
20140;SDS011;10231;47.702;9.826;2024-03-17T05:30:54;2.63;;;2.53;;
20140;SDS011;10231;47.702;9.826;2024-03-17T05:33:20;2.80;;;2.60;;
20140;SDS011;10231;47.702;9.826;2024-03-17T05:35:57;3.23;;;3.03;;
20140;SDS011;10231;47.702;9.826;2024-03-17T05:38:23;2.90;;;2.80;;
20140;SDS011;10231;47.702;9.826;2024-03-17T05:43:22;2.63;;;2.50;;
20140;SDS011;10231;47.702;9.826;2024-03-17T05:45:49;2.40;;;2.30;;
20140;SDS011;10231;47.702;9.826;2024-03-17T05:48:18;2.47;;;2.37;;
20140;SDS011;10231;47.702;9.826;2024-03-17T05:50:44;3.03;;;2.83;;
20140;SDS011;10231;47.702;9.826;2024-03-17T05:53:10;2.50;;;2.40;;
20140;SDS011;10231;47.702;9.826;2024-03-17T05:55:36;2.40;;;2.30;;
20140;SDS011;10231;47.702;9.826;2024-03-17T05:58:02;2.50;;;2.40;;
20140;SDS011;10231;47.702;9.826;2024-03-17T06:00:28;2.90;;;2.70;;
20140;SDS011;10231;47.702;9.826;2024-03-17T06:02:55;3.00;;;2.73;;
20140;SDS011;10231;47.702;9.826;2024-03-17T06:05:25;2.23;;;2.13;;
20140;SDS011;10231;47.702;9.826;2024-03-17T06:07:50;2.63;;;2.53;;
20140;SDS011;10231;47.702;9.826;2024-03-17T06:10:16;1.83;;;1.73;;
20140;SDS011;10231;47.702;9.826;2024-03-17T06:12:41;2.60;;;2.40;;
20140;SDS011;10231;47.702;9.826;2024-03-17T06:15:07;2.40;;;2.07;;
20140;SDS011;10231;47.702;9.826;2024-03-17T06:17:33;2.50;;;2.30;;
20140;SDS011;10231;47.702;9.826;2024-03-17T06:19:59;2.40;;;2.30;;
20140;SDS011;10231;47.702;9.826;2024-03-17T06:22:27;2.47;;;2.27;;
20140;SDS011;10231;47.702;9.826;2024-03-17T06:24:52;2.63;;;2.40;;
20140;SDS011;10231;47.702;9.826;2024-03-17T06:27:18;2.43;;;2.33;;
20140;SDS011;10231;47.702;9.826;2024-03-17T06:29:43;2.10;;;2.00;;
20140;SDS011;10231;47.702;9.826;2024-03-17T06:32:10;2.63;;;2.43;;
20140;SDS011;10231;47.702;9.826;2024-03-17T06:34:36;2.10;;;2.07;;
20140;SDS011;10231;47.702;9.826;2024-03-17T06:37:02;2.27;;;2.17;;
20140;SDS011;10231;47.702;9.826;2024-03-17T06:39:28;2.80;;;2.20;;
20140;SDS011;10231;47.702;9.826;2024-03-17T06:41:53;2.80;;;2.60;;
20140;SDS011;10231;47.702;9.826;2024-03-17T06:44:19;2.17;;;2.07;;
20140;SDS011;10231;47.702;9.826;2024-03-17T06:46:45;2.27;;;2.17;;
20140;SDS011;10231;47.702;9.826;2024-03-17T06:49:12;2.00;;;1.90;;
20140;SDS011;10231;47.702;9.826;2024-03-17T06:51:37;2.23;;;2.13;;
20140;SDS011;10231;47.702;9.826;2024-03-17T06:54:03;2.20;;;2.10;;
20140;SDS011;10231;47.702;9.826;2024-03-17T06:56:29;2.83;;;2.70;;
20140;SDS011;10231;47.702;9.826;2024-03-17T06:58:54;2.13;;;2.00;;
20140;SDS011;10231;47.702;9.826;2024-03-17T07:01:20;2.53;;;2.40;;
20140;SDS011;10231;47.702;9.826;2024-03-17T07:03:46;2.67;;;2.57;;
20140;SDS011;10231;47.702;9.826;2024-03-17T07:06:11;2.67;;;2.50;;
20140;SDS011;10231;47.702;9.826;2024-03-17T07:08:37;3.20;;;3.00;;
20140;SDS011;10231;47.702;9.826;2024-03-17T07:11:03;3.00;;;2.80;;
20140;SDS011;10231;47.702;9.826;2024-03-17T07:13:31;3.10;;;2.83;;
20140;SDS011;10231;47.702;9.826;2024-03-17T07:15:58;3.30;;;3.00;;
20140;SDS011;10231;47.702;9.826;2024-03-17T07:18:25;2.80;;;2.70;;
20140;SDS011;10231;47.702;9.826;2024-03-17T07:20:52;2.40;;;2.30;;
20140;SDS011;10231;47.702;9.826;2024-03-17T07:23:18;4.07;;;2.53;;
20140;SDS011;10231;47.702;9.826;2024-03-17T07:25:51;2.80;;;2.63;;
20140;SDS011;10231;47.702;9.826;2024-03-17T07:28:20;2.83;;;2.53;;
20140;SDS011;10231;47.702;9.826;2024-03-17T07:30:47;2.37;;;2.17;;
20140;SDS011;10231;47.702;9.826;2024-03-17T07:33:14;2.60;;;2.20;;
20140;SDS011;10231;47.702;9.826;2024-03-17T07:35:46;2.23;;;1.93;;
20140;SDS011;10231;47.702;9.826;2024-03-17T07:38:12;2.33;;;2.13;;
20140;SDS011;10231;47.702;9.826;2024-03-17T07:40:38;2.07;;;1.93;;
20140;SDS011;10231;47.702;9.826;2024-03-17T07:43:03;2.47;;;2.37;;
20140;SDS011;10231;47.702;9.826;2024-03-17T07:45:29;2.37;;;2.00;;
20140;SDS011;10231;47.702;9.826;2024-03-17T07:47:54;2.33;;;1.57;;
20140;SDS011;10231;47.702;9.826;2024-03-17T07:50:20;1.20;;;1.20;;
20140;SDS011;10231;47.702;9.826;2024-03-17T07:52:46;1.77;;;1.30;;
20140;SDS011;10231;47.702;9.826;2024-03-17T07:55:11;1.00;;;1.00;;
20140;SDS011;10231;47.702;9.826;2024-03-17T07:57:38;1.10;;;0.93;;
20140;SDS011;10231;47.702;9.826;2024-03-17T08:00:04;2.80;;;0.97;;
20140;SDS011;10231;47.702;9.826;2024-03-17T08:02:34;1.40;;;1.00;;
20140;SDS011;10231;47.702;9.826;2024-03-17T08:05:00;1.87;;;0.93;;
20140;SDS011;10231;47.702;9.826;2024-03-17T08:07:25;1.40;;;0.90;;
20140;SDS011;10231;47.702;9.826;2024-03-17T08:09:51;0.87;;;0.87;;
20140;SDS011;10231;47.702;9.826;2024-03-17T08:12:16;1.00;;;0.90;;
20140;SDS011;10231;47.702;9.826;2024-03-17T08:14:42;1.83;;;0.97;;
20140;SDS011;10231;47.702;9.826;2024-03-17T08:17:08;1.83;;;0.87;;
20140;SDS011;10231;47.702;9.826;2024-03-17T08:19:34;0.70;;;0.70;;
20140;SDS011;10231;47.702;9.826;2024-03-17T08:22:00;0.70;;;0.70;;
20140;SDS011;10231;47.702;9.826;2024-03-17T08:24:26;0.63;;;0.63;;
20140;SDS011;10231;47.702;9.826;2024-03-17T08:26:51;1.57;;;1.00;;
20140;SDS011;10231;47.702;9.826;2024-03-17T08:29:17;1.30;;;1.20;;
20140;SDS011;10231;47.702;9.826;2024-03-17T08:31:42;1.20;;;0.77;;
20140;SDS011;10231;47.702;9.826;2024-03-17T08:34:10;1.77;;;0.90;;
20140;SDS011;10231;47.702;9.826;2024-03-17T08:36:35;0.90;;;0.80;;
20140;SDS011;10231;47.702;9.826;2024-03-17T08:39:01;0.67;;;0.67;;
20140;SDS011;10231;47.702;9.826;2024-03-17T08:41:26;0.70;;;0.60;;
20140;SDS011;10231;47.702;9.826;2024-03-17T08:43:52;0.90;;;0.70;;
20140;SDS011;10231;47.702;9.826;2024-03-17T08:46:18;2.10;;;0.50;;
20140;SDS011;10231;47.702;9.826;2024-03-17T08:48:44;1.77;;;0.60;;
20140;SDS011;10231;47.702;9.826;2024-03-17T08:51:09;1.10;;;0.40;;
20140;SDS011;10231;47.702;9.826;2024-03-17T08:53:35;0.40;;;0.40;;
20140;SDS011;10231;47.702;9.826;2024-03-17T08:56:04;0.57;;;0.50;;
20140;SDS011;10231;47.702;9.826;2024-03-17T08:58:31;1.53;;;0.40;;
20140;SDS011;10231;47.702;9.826;2024-03-17T09:00:57;1.03;;;0.40;;
20140;SDS011;10231;47.702;9.826;2024-03-17T09:03:23;0.40;;;0.40;;
20140;SDS011;10231;47.702;9.826;2024-03-17T09:05:49;0.73;;;0.67;;
20140;SDS011;10231;47.702;9.826;2024-03-17T09:08:16;0.30;;;0.30;;
20140;SDS011;10231;47.702;9.826;2024-03-17T09:10:50;0.70;;;0.40;;
20140;SDS011;10231;47.702;9.826;2024-03-17T09:13:18;0.50;;;0.47;;
20140;SDS011;10231;47.702;9.826;2024-03-17T09:15:54;0.50;;;0.40;;
20140;SDS011;10231;47.702;9.826;2024-03-17T09:18:30;0.87;;;0.37;;
20140;SDS011;10231;47.702;9.826;2024-03-17T09:21:01;0.30;;;0.30;;
20140;SDS011;10231;47.702;9.826;2024-03-17T09:23:28;0.40;;;0.30;;
20140;SDS011;10231;47.702;9.826;2024-03-17T09:26:01;0.30;;;0.30;;
20140;SDS011;10231;47.702;9.826;2024-03-17T09:28:31;0.40;;;0.40;;
20140;SDS011;10231;47.702;9.826;2024-03-17T09:30:58;0.50;;;0.40;;
20140;SDS011;10231;47.702;9.826;2024-03-17T09:33:25;0.83;;;0.63;;
20140;SDS011;10231;47.702;9.826;2024-03-17T09:35:59;1.13;;;0.60;;
20140;SDS011;10231;47.702;9.826;2024-03-17T09:38:26;0.50;;;0.50;;
20140;SDS011;10231;47.702;9.826;2024-03-17T09:40:52;1.70;;;0.40;;
20140;SDS011;10231;47.702;9.826;2024-03-17T09:43:20;1.67;;;0.40;;
20140;SDS011;10231;47.702;9.826;2024-03-17T09:45:46;1.73;;;0.50;;
20140;SDS011;10231;47.702;9.826;2024-03-17T09:48:16;0.70;;;0.30;;
20140;SDS011;10231;47.702;9.826;2024-03-17T09:50:43;1.07;;;0.50;;
20140;SDS011;10231;47.702;9.826;2024-03-17T09:53:16;1.23;;;0.40;;
20140;SDS011;10231;47.702;9.826;2024-03-17T09:55:43;1.07;;;0.97;;
20140;SDS011;10231;47.702;9.826;2024-03-17T09:58:17;0.93;;;0.40;;
20140;SDS011;10231;47.702;9.826;2024-03-17T10:00:43;0.40;;;0.40;;
20140;SDS011;10231;47.702;9.826;2024-03-17T10:03:09;1.67;;;0.50;;
20140;SDS011;10231;47.702;9.826;2024-03-17T10:05:35;0.97;;;0.50;;
20140;SDS011;10231;47.702;9.826;2024-03-17T10:08:00;0.37;;;0.37;;
20140;SDS011;10231;47.702;9.826;2024-03-17T10:10:26;0.97;;;0.40;;
20140;SDS011;10231;47.702;9.826;2024-03-17T10:12:52;1.20;;;0.50;;
20140;SDS011;10231;47.702;9.826;2024-03-17T10:15:17;2.03;;;0.50;;
20140;SDS011;10231;47.702;9.826;2024-03-17T10:17:45;0.40;;;0.40;;
20140;SDS011;10231;47.702;9.826;2024-03-17T10:22:37;1.43;;;0.50;;
20140;SDS011;10231;47.702;9.826;2024-03-17T10:25:03;0.73;;;0.60;;
20140;SDS011;10231;47.702;9.826;2024-03-17T10:27:29;1.20;;;0.40;;
20140;SDS011;10231;47.702;9.826;2024-03-17T10:29:54;0.57;;;0.50;;
20140;SDS011;10231;47.702;9.826;2024-03-17T10:32:20;1.33;;;0.50;;
20140;SDS011;10231;47.702;9.826;2024-03-17T10:34:49;0.77;;;0.50;;
20140;SDS011;10231;47.702;9.826;2024-03-17T10:37:15;0.73;;;0.40;;
20140;SDS011;10231;47.702;9.826;2024-03-17T10:39:50;2.10;;;0.80;;
20140;SDS011;10231;47.702;9.826;2024-03-17T10:42:24;0.70;;;0.47;;
20140;SDS011;10231;47.702;9.826;2024-03-17T10:44:53;1.90;;;0.80;;
20140;SDS011;10231;47.702;9.826;2024-03-17T10:47:21;0.57;;;0.50;;
20140;SDS011;10231;47.702;9.826;2024-03-17T10:49:49;1.47;;;0.50;;
20140;SDS011;10231;47.702;9.826;2024-03-17T10:52:19;0.60;;;0.40;;
20140;SDS011;10231;47.702;9.826;2024-03-17T10:54:50;0.87;;;0.57;;
20140;SDS011;10231;47.702;9.826;2024-03-17T11:00:00;1.67;;;0.50;;
20140;SDS011;10231;47.702;9.826;2024-03-17T11:02:30;1.90;;;0.70;;
20140;SDS011;10231;47.702;9.826;2024-03-17T11:05:01;0.70;;;0.50;;
20140;SDS011;10231;47.702;9.826;2024-03-17T11:07:28;1.53;;;0.80;;
20140;SDS011;10231;47.702;9.826;2024-03-17T11:09:56;1.37;;;0.43;;
20140;SDS011;10231;47.702;9.826;2024-03-17T11:20:37;2.77;;;0.50;;
20140;SDS011;10231;47.702;9.826;2024-03-17T11:23:02;2.30;;;0.60;;
20140;SDS011;10231;47.702;9.826;2024-03-17T11:28:06;2.50;;;0.77;;
20140;SDS011;10231;47.702;9.826;2024-03-17T11:46:39;1.43;;;0.50;;
20140;SDS011;10231;47.702;9.826;2024-03-17T11:49:04;1.47;;;0.50;;
20140;SDS011;10231;47.702;9.826;2024-03-17T11:51:32;3.20;;;0.87;;
20140;SDS011;10231;47.702;9.826;2024-03-17T11:53:59;5.23;;;0.60;;
20140;SDS011;10231;47.702;9.826;2024-03-17T11:56:25;2.50;;;0.80;;
20140;SDS011;10231;47.702;9.826;2024-03-17T11:59:05;1.37;;;0.80;;
20140;SDS011;10231;47.702;9.826;2024-03-17T12:01:34;2.03;;;0.63;;
20140;SDS011;10231;47.702;9.826;2024-03-17T12:03:59;3.63;;;0.60;;
20140;SDS011;10231;47.702;9.826;2024-03-17T12:06:30;3.67;;;0.83;;
20140;SDS011;10231;47.702;9.826;2024-03-17T12:14:26;2.63;;;0.80;;
20140;SDS011;10231;47.702;9.826;2024-03-17T12:16:52;2.70;;;0.90;;
20140;SDS011;10231;47.702;9.826;2024-03-17T12:19:19;2.23;;;0.60;;
20140;SDS011;10231;47.702;9.826;2024-03-17T12:21:49;1.43;;;0.50;;
20140;SDS011;10231;47.702;9.826;2024-03-17T12:24:20;3.47;;;1.37;;
20140;SDS011;10231;47.702;9.826;2024-03-17T12:26:47;3.13;;;0.90;;
20140;SDS011;10231;47.702;9.826;2024-03-17T12:31:55;1.73;;;0.70;;
20140;SDS011;10231;47.702;9.826;2024-03-17T12:34:21;2.30;;;0.70;;
20140;SDS011;10231;47.702;9.826;2024-03-17T12:36:49;3.13;;;0.60;;
20140;SDS011;10231;47.702;9.826;2024-03-17T12:44:34;0.80;;;0.50;;
20140;SDS011;10231;47.702;9.826;2024-03-17T12:47:07;2.83;;;0.70;;
20140;SDS011;10231;47.702;9.826;2024-03-17T12:49:45;1.83;;;0.70;;
20140;SDS011;10231;47.702;9.826;2024-03-17T12:52:19;3.13;;;0.90;;
20140;SDS011;10231;47.702;9.826;2024-03-17T12:54:58;3.40;;;1.20;;
20140;SDS011;10231;47.702;9.826;2024-03-17T12:57:46;1.80;;;0.63;;
20140;SDS011;10231;47.702;9.826;2024-03-17T13:00:32;6.13;;;1.00;;
20140;SDS011;10231;47.702;9.826;2024-03-17T13:02:58;2.37;;;0.90;;
20140;SDS011;10231;47.702;9.826;2024-03-17T13:05:25;2.80;;;1.00;;
20140;SDS011;10231;47.702;9.826;2024-03-17T13:07:51;3.87;;;1.03;;
20140;SDS011;10231;47.702;9.826;2024-03-17T13:10:19;3.60;;;1.00;;
20140;SDS011;10231;47.702;9.826;2024-03-17T13:12:46;1.73;;;0.63;;
20140;SDS011;10231;47.702;9.826;2024-03-17T13:15:13;3.23;;;1.03;;
20140;SDS011;10231;47.702;9.826;2024-03-17T13:17:41;1.97;;;0.80;;
20140;SDS011;10231;47.702;9.826;2024-03-17T13:20:08;1.90;;;0.70;;
20140;SDS011;10231;47.702;9.826;2024-03-17T13:22:38;3.00;;;0.80;;
20140;SDS011;10231;47.702;9.826;2024-03-17T13:25:05;1.50;;;0.80;;
20140;SDS011;10231;47.702;9.826;2024-03-17T13:27:37;2.73;;;0.90;;
20140;SDS011;10231;47.702;9.826;2024-03-17T13:30:03;2.90;;;0.80;;
20140;SDS011;10231;47.702;9.826;2024-03-17T13:32:29;1.53;;;0.90;;
20140;SDS011;10231;47.702;9.826;2024-03-17T13:34:54;2.27;;;0.80;;
20140;SDS011;10231;47.702;9.826;2024-03-17T13:37:20;1.47;;;0.90;;
20140;SDS011;10231;47.702;9.826;2024-03-17T13:39:46;2.13;;;1.30;;
20140;SDS011;10231;47.702;9.826;2024-03-17T13:42:12;2.40;;;0.60;;
20140;SDS011;10231;47.702;9.826;2024-03-17T13:44:37;2.90;;;1.00;;
20140;SDS011;10231;47.702;9.826;2024-03-17T13:47:03;1.30;;;1.07;;
20140;SDS011;10231;47.702;9.826;2024-03-17T13:49:29;1.70;;;0.80;;
20140;SDS011;10231;47.702;9.826;2024-03-17T13:51:55;1.20;;;0.90;;
20140;SDS011;10231;47.702;9.826;2024-03-17T13:54:21;2.43;;;1.10;;
20140;SDS011;10231;47.702;9.826;2024-03-17T13:56:47;3.70;;;1.40;;
20140;SDS011;10231;47.702;9.826;2024-03-17T13:59:16;2.30;;;1.40;;
20140;SDS011;10231;47.702;9.826;2024-03-17T14:01:42;1.17;;;0.90;;
20140;SDS011;10231;47.702;9.826;2024-03-17T14:04:13;1.50;;;1.10;;
20140;SDS011;10231;47.702;9.826;2024-03-17T14:06:43;1.33;;;1.00;;
20140;SDS011;10231;47.702;9.826;2024-03-17T14:09:10;2.20;;;1.23;;
20140;SDS011;10231;47.702;9.826;2024-03-17T14:11:37;1.60;;;1.00;;
20140;SDS011;10231;47.702;9.826;2024-03-17T14:14:03;2.33;;;1.10;;
20140;SDS011;10231;47.702;9.826;2024-03-17T14:16:30;1.00;;;0.90;;
20140;SDS011;10231;47.702;9.826;2024-03-17T14:18:59;1.37;;;1.20;;
20140;SDS011;10231;47.702;9.826;2024-03-17T14:21:26;2.60;;;1.30;;
20140;SDS011;10231;47.702;9.826;2024-03-17T14:23:52;3.57;;;1.43;;
20140;SDS011;10231;47.702;9.826;2024-03-17T14:26:18;2.30;;;1.03;;
20140;SDS011;10231;47.702;9.826;2024-03-17T14:28:44;3.73;;;1.50;;
20140;SDS011;10231;47.702;9.826;2024-03-17T14:31:10;2.33;;;1.47;;
20140;SDS011;10231;47.702;9.826;2024-03-17T14:33:36;1.87;;;1.37;;
20140;SDS011;10231;47.702;9.826;2024-03-17T14:36:02;2.00;;;1.43;;
20140;SDS011;10231;47.702;9.826;2024-03-17T14:38:27;3.03;;;1.67;;
20140;SDS011;10231;47.702;9.826;2024-03-17T14:40:53;3.10;;;1.27;;
20140;SDS011;10231;47.702;9.826;2024-03-17T14:43:19;2.60;;;1.50;;
20140;SDS011;10231;47.702;9.826;2024-03-17T14:45:45;6.00;;;2.10;;
20140;SDS011;10231;47.702;9.826;2024-03-17T14:48:11;2.10;;;1.90;;
20140;SDS011;10231;47.702;9.826;2024-03-17T14:50:38;2.70;;;1.80;;
20140;SDS011;10231;47.702;9.826;2024-03-17T14:53:04;3.50;;;1.80;;
20140;SDS011;10231;47.702;9.826;2024-03-17T14:55:30;3.03;;;2.67;;
20140;SDS011;10231;47.702;9.826;2024-03-17T14:57:56;2.20;;;2.00;;
20140;SDS011;10231;47.702;9.826;2024-03-17T15:00:21;4.97;;;2.40;;
20140;SDS011;10231;47.702;9.826;2024-03-17T15:02:50;2.10;;;2.00;;
20140;SDS011;10231;47.702;9.826;2024-03-17T15:05:16;3.27;;;1.80;;
20140;SDS011;10231;47.702;9.826;2024-03-17T15:07:43;2.63;;;1.50;;
20140;SDS011;10231;47.702;9.826;2024-03-17T15:10:09;1.70;;;1.17;;
20140;SDS011;10231;47.702;9.826;2024-03-17T15:12:37;3.50;;;2.00;;
20140;SDS011;10231;47.702;9.826;2024-03-17T15:15:05;1.90;;;1.70;;
20140;SDS011;10231;47.702;9.826;2024-03-17T15:17:33;4.43;;;2.20;;
20140;SDS011;10231;47.702;9.826;2024-03-17T15:20:01;2.20;;;1.20;;
20140;SDS011;10231;47.702;9.826;2024-03-17T15:22:37;3.30;;;1.03;;
20140;SDS011;10231;47.702;9.826;2024-03-17T15:25:03;2.30;;;1.43;;
20140;SDS011;10231;47.702;9.826;2024-03-17T15:27:30;4.03;;;1.40;;
20140;SDS011;10231;47.702;9.826;2024-03-17T15:29:55;3.00;;;1.30;;
20140;SDS011;10231;47.702;9.826;2024-03-17T15:32:21;2.00;;;1.17;;
20140;SDS011;10231;47.702;9.826;2024-03-17T15:34:47;3.80;;;1.63;;
20140;SDS011;10231;47.702;9.826;2024-03-17T15:37:14;2.80;;;1.50;;